Time;durP1;ratioP1;P1;durP2;ratioP2;P2;SDS_P1;SDS_P2;PMS_P1;PMS_P2;Temp;Humidity;BMP_temperature;BMP_pressure;BME280_temperature;BME280_humidity;BME280_pressure;Samples;Min_cycle;Max_cycle;Signal;HPM_P1;HPM_P2
2023/04/17 00:01:59;;;;;;;2.35;1.80;;;5.30;99.90;;;;;;7544586;19;20023;-70
2023/04/17 00:04:31;;;;;;;3.10;1.83;;;5.20;99.90;;;;;;7537666;19;20853;-69
2023/04/17 00:07:04;;;;;;;2.10;1.40;;;5.00;99.90;;;;;;7565865;19;20018;-70
2023/04/17 00:09:36;;;;;;;3.23;1.87;;;5.00;99.90;;;;;;7573827;19;20620;-69
2023/04/17 00:12:09;;;;;;;2.75;1.67;;;5.00;99.90;;;;;;7563678;19;20074;-69
2023/04/17 00:14:41;;;;;;;2.30;1.38;;;5.00;99.90;;;;;;7578859;19;20018;-69
2023/04/17 00:17:14;;;;;;;3.90;1.80;;;4.90;99.90;;;;;;7545494;19;20851;-68
2023/04/17 00:19:46;;;;;;;2.00;1.58;;;4.90;99.90;;;;;;7549602;19;20018;-69
2023/04/17 00:22:18;;;;;;;1.77;1.40;;;4.90;99.90;;;;;;7549871;19;20348;-70
2023/04/17 00:24:50;;;;;;;2.28;1.83;;;4.80;99.90;;;;;;7563351;19;20518;-69
2023/04/17 00:27:22;;;;;;;2.03;1.50;;;4.90;99.90;;;;;;7560190;19;20018;-70
2023/04/17 00:29:55;;;;;;;3.03;1.90;;;4.90;99.90;;;;;;7589184;19;20385;-69
2023/04/17 00:32:27;;;;;;;9.68;2.47;;;4.80;99.90;;;;;;7586805;19;20708;-69
2023/04/17 00:35:00;;;;;;;2.30;1.98;;;4.80;99.90;;;;;;7577951;19;20082;-69
2023/04/17 00:37:32;;;;;;;2.00;1.70;;;4.80;99.90;;;;;;7578808;19;20378;-69
2023/04/17 00:40:05;;;;;;;2.70;1.50;;;4.70;99.90;;;;;;7581628;19;20013;-68
2023/04/17 00:42:37;;;;;;;2.83;1.85;;;4.60;99.90;;;;;;7589642;19;20055;-69
2023/04/17 00:45:10;;;;;;;2.65;1.80;;;4.60;99.90;;;;;;7585687;19;20033;-69
2023/04/17 00:47:42;;;;;;;3.05;1.65;;;4.60;99.90;;;;;;7583730;19;20019;-69
2023/04/17 00:50:15;;;;;;;2.10;1.80;;;4.60;99.90;;;;;;7574388;19;20010;-69
2023/04/17 00:52:48;;;;;;;4.05;1.70;;;4.80;99.90;;;;;;7579558;19;20018;-69
2023/04/17 00:55:21;;;;;;;3.28;2.15;;;4.70;99.90;;;;;;7575244;19;20379;-68
2023/04/17 00:57:55;;;;;;;2.53;2.05;;;4.70;99.90;;;;;;7582071;19;20642;-69
2023/04/17 01:00:27;;;;;;;2.58;1.90;;;4.50;99.90;;;;;;7577994;19;20693;-69
2023/04/17 01:02:59;;;;;;;2.17;1.50;;;4.50;99.90;;;;;;7565846;19;20018;-69
2023/04/17 01:05:34;;;;;;;2.80;1.83;;;4.60;99.90;;;;;;7561770;19;20822;-68
2023/04/17 01:08:06;;;;;;;2.60;2.00;;;4.50;99.90;;;;;;7562764;19;20038;-69
2023/04/17 01:10:39;;;;;;;4.63;1.95;;;4.50;99.90;;;;;;7565434;19;20926;-69
2023/04/17 01:13:12;;;;;;;4.80;1.90;;;4.60;99.90;;;;;;7571228;19;20777;-68
2023/04/17 01:15:46;;;;;;;2.83;1.83;;;4.60;99.90;;;;;;7557938;19;20090;-68
2023/04/17 01:18:18;;;;;;;2.03;1.45;;;4.60;99.90;;;;;;7575436;19;20025;-68
2023/04/17 01:20:50;;;;;;;2.55;1.90;;;4.60;99.90;;;;;;7568097;19;20114;-69
2023/04/17 01:23:22;;;;;;;2.42;1.80;;;4.60;99.90;;;;;;7580638;19;20035;-68
2023/04/17 01:25:55;;;;;;;3.67;2.00;;;4.60;99.90;;;;;;7578458;19;20015;-69
2023/04/17 01:28:28;;;;;;;3.13;2.30;;;4.50;99.90;;;;;;7579111;19;20042;-68
2023/04/17 01:31:01;;;;;;;3.00;2.03;;;4.50;99.90;;;;;;7577484;19;20047;-70
2023/04/17 01:33:33;;;;;;;2.63;1.88;;;4.40;99.90;;;;;;7580970;19;20029;-69
2023/04/17 01:36:06;;;;;;;3.70;2.15;;;4.40;99.90;;;;;;7571841;19;20968;-69
2023/04/17 01:38:38;;;;;;;4.15;2.25;;;4.30;99.90;;;;;;7583040;19;20018;-68
2023/04/17 01:41:10;;;;;;;2.80;2.28;;;4.30;99.90;;;;;;7586243;19;20022;-69
2023/04/17 01:43:45;;;;;;;3.17;2.28;;;4.40;99.90;;;;;;7580060;19;20063;-69
2023/04/17 01:46:17;;;;;;;;;;;4.30;99.90;;;;;;7587809;19;20025;-69
2023/04/17 01:48:49;;;;;;;4.30;2.53;;;4.30;99.90;;;;;;7588306;19;19926;-69
2023/04/17 01:51:21;;;;;;;2.80;1.92;;;4.30;99.90;;;;;;7573205;19;20640;-69
2023/04/17 01:53:54;;;;;;;3.70;2.08;;;4.20;99.90;;;;;;7580677;19;20029;-68
2023/04/17 01:56:26;;;;;;;2.85;2.05;;;4.20;99.90;;;;;;7584451;19;21060;-69
2023/04/17 01:58:58;;;;;;;4.53;1.98;;;4.20;99.90;;;;;;7574603;19;20014;-68
2023/04/17 02:01:30;;;;;;;4.00;2.00;;;4.20;99.90;;;;;;7576498;19;20594;-69
2023/04/17 02:04:03;;;;;;;3.45;2.38;;;4.10;99.90;;;;;;7577192;19;20015;-68
2023/04/17 02:06:35;;;;;;;3.75;2.38;;;4.00;99.90;;;;;;7585204;19;20148;-69
2023/04/17 02:09:08;;;;;;;3.63;2.80;;;4.00;99.90;;;;;;7575596;19;20032;-68
2023/04/17 02:11:43;;;;;;;5.93;2.38;;;4.00;99.90;;;;;;7572608;19;20019;-68
2023/04/17 02:14:17;;;;;;;4.07;2.58;;;4.00;99.90;;;;;;7566699;19;20370;-69
2023/04/17 02:16:49;;;;;;;3.25;2.05;;;4.00;99.90;;;;;;7578894;19;20029;-69
2023/04/17 02:19:21;;;;;;;3.25;2.22;;;4.00;99.90;;;;;;7588007;19;20018;-68
2023/04/17 02:21:54;;;;;;;4.95;4.45;;;4.00;99.90;;;;;;7576971;19;20098;-69
2023/04/17 02:24:27;;;;;;;5.18;3.20;;;4.10;99.90;;;;;;7575341;19;20025;-69
2023/04/17 02:27:01;;;;;;;5.03;2.70;;;4.10;99.90;;;;;;7561156;19;20141;-69
2023/04/17 02:29:34;;;;;;;2.88;2.33;;;4.00;99.90;;;;;;7543249;19;20025;-69
2023/04/17 02:32:06;;;;;;;4.78;3.13;;;4.00;99.90;;;;;;7564652;19;20019;-69
2023/04/17 02:34:39;;;;;;;4.33;3.60;;;4.00;99.90;;;;;;7554117;19;20545;-68
2023/04/17 02:37:11;;;;;;;4.25;2.80;;;4.00;99.90;;;;;;7564056;19;20025;-69
2023/04/17 02:39:43;;;;;;;3.70;2.60;;;3.90;99.90;;;;;;7542906;19;20138;-69
2023/04/17 02:42:17;;;;;;;3.90;2.60;;;3.90;99.90;;;;;;7539280;19;20014;-68
2023/04/17 02:44:51;;;;;;;3.65;2.38;;;3.90;99.90;;;;;;7547327;19;20033;-68
2023/04/17 02:47:25;;;;;;;6.93;2.80;;;3.90;99.90;;;;;;7542981;19;20022;-68
2023/04/17 02:49:59;;;;;;;4.40;3.45;;;3.90;99.90;;;;;;7550051;19;20011;-68
2023/04/17 02:52:32;;;;;;;5.55;3.10;;;3.90;99.90;;;;;;7518227;19;21003;-69
2023/04/17 02:55:05;;;;;;;5.50;3.03;;;4.00;99.90;;;;;;7558130;19;20025;-69
2023/04/17 02:57:39;;;;;;;3.95;2.75;;;3.90;99.90;;;;;;7544744;19;20016;-70
2023/04/17 03:00:13;;;;;;;5.43;2.83;;;3.90;99.90;;;;;;7559314;19;20029;-68
2023/04/17 03:02:46;;;;;;;5.57;3.78;;;3.90;99.90;;;;;;7547070;19;20022;-68
2023/04/17 03:05:22;;;;;;;4.95;3.13;;;3.90;99.90;;;;;;7550257;19;20022;-68
2023/04/17 03:07:58;;;;;;;4.40;2.67;;;3.80;99.90;;;;;;7534879;19;20025;-69
2023/04/17 03:10:34;;;;;;;5.45;3.10;;;3.80;99.90;;;;;;7543945;19;20021;-68
2023/04/17 03:13:06;;;;;;;3.67;2.72;;;3.80;99.90;;;;;;7561844;19;20026;-69
2023/04/17 03:15:39;;;;;;;3.80;2.50;;;3.70;99.90;;;;;;7557674;19;20791;-69
2023/04/17 03:18:11;;;;;;;6.40;2.70;;;3.70;99.90;;;;;;7559740;19;20104;-68
2023/04/17 03:20:44;;;;;;;3.72;2.80;;;3.70;99.90;;;;;;7548563;19;20949;-68
2023/04/17 03:23:16;;;;;;;4.43;2.63;;;3.70;99.90;;;;;;7557512;19;20490;-68
2023/04/17 03:25:49;;;;;;;4.28;3.03;;;3.80;99.90;;;;;;7550549;19;20006;-68
2023/04/17 03:28:22;;;;;;;3.28;2.63;;;3.70;99.90;;;;;;7588855;19;20110;-69
2023/04/17 03:30:56;;;;;;;4.60;2.92;;;3.80;99.90;;;;;;7576649;19;20022;-68
2023/04/17 03:33:29;;;;;;;4.90;3.15;;;4.00;99.90;;;;;;7581686;19;20025;-69
2023/04/17 03:36:02;;;;;;;5.97;3.50;;;4.00;99.90;;;;;;7572410;19;20056;-68
2023/04/17 03:38:35;;;;;;;8.13;3.95;;;3.90;99.90;;;;;;7579776;19;20018;-68
2023/04/17 03:41:10;;;;;;;5.70;3.50;;;3.90;99.90;;;;;;7562645;19;20020;-68
2023/04/17 03:43:43;;;;;;;6.88;3.83;;;3.90;99.90;;;;;;7571532;19;20018;-69
2023/04/17 03:46:16;;;;;;;10.23;4.47;;;4.00;99.90;;;;;;7574164;19;20010;-69
2023/04/17 03:48:48;;;;;;;7.35;5.15;;;4.00;99.90;;;;;;7558538;19;20023;-69
2023/04/17 03:51:21;;;;;;;5.50;4.20;;;4.00;99.90;;;;;;7567583;19;20011;-69
2023/04/17 03:53:54;;;;;;;7.97;4.50;;;4.20;99.90;;;;;;7547731;19;20014;-69
2023/04/17 03:56:27;;;;;;;11.00;5.22;;;4.20;99.90;;;;;;7563212;19;20062;-69
2023/04/17 03:59:00;;;;;;;8.90;5.30;;;4.30;99.90;;;;;;7546476;19;20015;-69
2023/04/17 04:01:32;;;;;;;11.43;5.78;;;4.30;99.90;;;;;;7564499;19;20417;-70
2023/04/17 04:04:13;;;;;;;9.18;5.28;;;4.40;99.90;;;;;;7579121;19;20019;-70
2023/04/17 04:06:48;;;;;;;12.02;5.68;;;4.30;99.90;;;;;;7572182;19;20033;-70
2023/04/17 04:09:26;;;;;;;12.15;6.53;;;4.30;99.90;;;;;;7561316;19;20022;-70
2023/04/17 04:12:00;;;;;;;10.93;6.70;;;4.40;99.90;;;;;;7581125;19;20051;-69
2023/04/17 04:14:34;;;;;;;10.15;5.82;;;4.40;99.90;;;;;;7577041;19;20018;-69
2023/04/17 04:17:07;;;;;;;10.75;5.53;;;4.40;99.90;;;;;;7580683;19;20018;-69
2023/04/17 04:19:41;;;;;;;7.72;4.78;;;4.50;99.90;;;;;;7560185;19;20112;-70
2023/04/17 04:22:14;;;;;;;7.20;4.45;;;4.50;99.90;;;;;;7550357;19;21264;-69
2023/04/17 04:24:52;;;;;;;8.07;5.32;;;4.60;99.90;;;;;;7559185;19;20964;-68
2023/04/17 04:27:31;;;;;;;7.28;4.78;;;4.60;99.90;;;;;;7576333;19;20011;-72
2023/04/17 04:30:05;;;;;;;7.78;4.60;;;4.70;99.90;;;;;;7580079;19;20021;-69
2023/04/17 04:32:40;;;;;;;8.27;4.75;;;4.60;99.90;;;;;;7572897;19;20026;-69
2023/04/17 04:35:13;;;;;;;27.23;10.48;;;4.60;99.90;;;;;;7563373;19;20885;-69
2023/04/17 04:37:46;;;;;;;53.58;19.08;;;4.60;99.90;;;;;;7573604;19;20110;-70
2023/04/17 04:40:18;;;;;;;44.15;15.75;;;4.60;99.90;;;;;;7580614;19;20007;-69
2023/04/17 04:42:55;;;;;;;24.70;10.13;;;4.60;99.90;;;;;;7556404;19;20010;-70
2023/04/17 04:45:33;;;;;;;33.58;12.38;;;4.70;99.90;;;;;;7556932;19;20029;-70
2023/04/17 04:48:07;;;;;;;;;;;4.70;99.90;;;;;;7550779;19;20014;-69
2023/04/17 04:50:39;;;;;;;16.05;7.90;;;4.80;99.90;;;;;;7559160;19;20327;-69
2023/04/17 04:53:11;;;;;;;23.92;9.27;;;4.80;99.90;;;;;;7590067;19;20019;-69
2023/04/17 04:55:52;;;;;;;51.28;17.98;;;4.80;99.90;;;;;;7577638;19;21255;-70
2023/04/17 04:58:24;;;;;;;31.02;13.65;;;4.80;99.90;;;;;;7568257;19;20993;-71
2023/04/17 05:01:00;;;;;;;27.25;11.02;;;4.80;99.90;;;;;;7545467;19;20666;-69
2023/04/17 05:03:39;;;;;;;23.48;9.45;;;4.90;99.90;;;;;;7540321;19;20018;-69
2023/04/17 05:06:14;;;;;;;22.92;9.38;;;5.00;99.90;;;;;;7558030;19;21038;-70
2023/04/17 05:08:52;;;;;;;27.90;10.02;;;5.00;99.90;;;;;;7536934;19;20014;-71
2023/04/17 05:11:24;;;;;;;31.00;14.30;;;5.00;99.90;;;;;;7519475;19;20791;-69
2023/04/17 05:13:57;;;;;;;31.95;14.68;;;5.00;99.90;;;;;;7552821;19;21215;-70
2023/04/17 05:16:33;;;;;;;21.73;11.25;;;5.10;99.90;;;;;;7566144;19;20633;-70
2023/04/17 05:19:05;;;;;;;24.33;10.50;;;5.20;99.90;;;;;;7580602;19;20018;-69
2023/04/17 05:21:57;;;;;;;30.73;11.60;;;5.20;99.90;;;;;;7547459;19;20037;-72
2023/04/17 05:24:29;;;;;;;32.10;13.85;;;5.20;99.90;;;;;;7541966;19;20023;-69
2023/04/17 05:27:02;;;;;;;36.20;14.27;;;5.10;99.90;;;;;;7545349;19;20070;-69
2023/04/17 05:29:36;;;;;;;32.25;14.10;;;5.00;99.90;;;;;;7563085;19;20033;-69
2023/04/17 05:32:08;;;;;;;38.22;14.48;;;5.10;99.90;;;;;;7542572;19;20018;-69
2023/04/17 05:34:52;;;;;;;35.25;14.13;;;5.00;99.90;;;;;;7520926;19;20014;-69
2023/04/17 05:37:28;;;;;;;31.58;12.77;;;5.10;99.90;;;;;;7558165;19;20977;-69
2023/04/17 05:40:05;;;;;;;28.90;12.68;;;5.10;99.90;;;;;;7580350;19;20015;-70
2023/04/17 05:42:38;;;;;;;30.98;11.85;;;5.10;99.90;;;;;;7577762;19;20022;-70
2023/04/17 05:45:14;;;;;;;28.10;12.15;;;5.10;99.90;;;;;;7563433;19;20015;-69
2023/04/17 05:47:46;;;;;;;22.08;9.70;;;5.10;99.90;;;;;;7572122;19;20022;-69
2023/04/17 05:50:19;;;;;;;20.20;9.82;;;5.20;99.90;;;;;;7578552;19;20014;-69
2023/04/17 05:52:51;;;;;;;23.52;8.63;;;5.10;99.90;;;;;;7583950;19;20022;-70
2023/04/17 05:55:24;;;;;;;27.17;9.95;;;5.10;99.90;;;;;;7572425;19;20033;-69
2023/04/17 05:58:01;;;;;;;29.58;11.25;;;5.10;99.90;;;;;;7565523;19;21056;-69
2023/04/17 06:00:54;;;;;;;29.38;9.85;;;5.00;99.90;;;;;;7586023;19;20025;-70
2023/04/17 06:03:28;;;;;;;32.42;14.43;;;5.00;99.90;;;;;;7582047;19;20002;-69
2023/04/17 06:06:08;;;;;;;36.55;13.90;;;5.00;99.90;;;;;;7587859;19;20007;-70
2023/04/17 06:08:40;;;;;;;39.63;14.98;;;5.00;99.90;;;;;;7584740;19;20875;-70
2023/04/17 06:11:14;;;;;;;26.63;10.35;;;5.00;99.90;;;;;;7588756;19;20030;-69
2023/04/17 06:13:47;;;;;;;25.67;11.00;;;5.00;99.90;;;;;;7560079;19;20026;-70
2023/04/17 06:16:21;;;;;;;19.45;9.27;;;5.10;99.90;;;;;;7561779;19;21012;-70
2023/04/17 06:18:54;;;;;;;18.77;8.98;;;5.10;99.90;;;;;;7578376;19;20022;-70
2023/04/17 06:21:27;;;;;;;27.77;13.55;;;5.20;99.90;;;;;;7569791;19;21034;-70
2023/04/17 06:23:59;;;;;;;25.03;11.87;;;5.20;99.90;;;;;;7578981;19;21117;-70
2023/04/17 06:26:32;;;;;;;28.42;12.27;;;5.30;99.90;;;;;;7582855;19;20042;-69
2023/04/17 06:29:04;;;;;;;20.38;9.77;;;5.30;99.90;;;;;;7579325;19;20033;-69
2023/04/17 06:31:38;;;;;;;15.20;7.88;;;5.40;99.90;;;;;;7592553;19;20006;-69
2023/04/17 06:34:11;;;;;;;15.97;7.23;;;5.50;99.90;;;;;;7594328;19;21216;-69
2023/04/17 06:36:47;;;;;;;13.70;6.82;;;5.50;99.90;;;;;;7578388;19;20022;-69
2023/04/17 06:39:22;;;;;;;11.68;6.65;;;5.60;99.90;;;;;;7585327;19;20026;-69
2023/04/17 06:41:55;;;;;;;16.75;8.75;;;5.60;99.90;;;;;;7585365;19;20026;-70
2023/04/17 06:44:31;;;;;;;13.13;7.82;;;5.50;99.90;;;;;;7576441;19;20022;-70
2023/04/17 06:47:04;;;;;;;12.88;7.20;;;5.60;99.90;;;;;;7589500;19;20014;-70
2023/04/17 06:49:37;;;;;;;16.27;8.45;;;5.60;99.90;;;;;;7593621;19;20021;-69
2023/04/17 06:52:09;;;;;;;15.93;9.52;;;5.60;99.90;;;;;;7581682;19;20014;-70
2023/04/17 06:54:41;;;;;;;15.50;8.80;;;5.60;99.90;;;;;;7576133;19;20364;-69
2023/04/17 06:57:13;;;;;;;16.63;8.30;;;5.60;99.90;;;;;;7584348;19;20062;-69
2023/04/17 06:59:46;;;;;;;15.02;8.50;;;5.70;99.90;;;;;;7585489;19;20858;-70
2023/04/17 07:02:18;;;;;;;15.88;8.45;;;5.70;99.90;;;;;;7598006;19;20473;-69
2023/04/17 07:04:50;;;;;;;16.02;8.65;;;5.80;99.90;;;;;;7578178;19;20078;-70
2023/04/17 07:07:23;;;;;;;19.43;9.43;;;5.80;99.90;;;;;;7586131;19;20022;-69
2023/04/17 07:09:56;;;;;;;16.45;9.35;;;5.90;99.90;;;;;;7557432;19;20047;-69
2023/04/17 07:12:29;;;;;;;14.80;8.30;;;5.90;99.90;;;;;;7573859;19;20015;-69
2023/04/17 07:15:01;;;;;;;15.73;8.77;;;6.00;99.90;;;;;;7584886;19;20467;-72
2023/04/17 07:17:33;;;;;;;16.17;8.77;;;6.00;99.90;;;;;;7583402;19;20117;-70
2023/04/17 07:20:06;;;;;;;16.42;8.77;;;6.10;99.90;;;;;;7591671;19;20022;-69
2023/04/17 07:22:38;;;;;;;18.00;9.32;;;6.10;99.90;;;;;;7592121;19;20018;-70
2023/04/17 07:25:11;;;;;;;17.15;9.32;;;6.10;99.90;;;;;;7591087;19;20657;-70
2023/04/17 07:27:43;;;;;;;19.63;11.00;;;6.10;99.90;;;;;;7589498;19;20022;-69
2023/04/17 07:30:15;;;;;;;13.55;7.72;;;6.10;99.90;;;;;;7592210;19;20018;-70
2023/04/17 07:32:47;;;;;;;15.35;8.95;;;6.10;99.90;;;;;;7586703;19;20025;-69
2023/04/17 07:35:22;;;;;;;16.65;9.63;;;6.10;99.90;;;;;;7590012;19;20930;-69
2023/04/17 07:37:56;;;;;;;16.88;9.80;;;6.10;99.90;;;;;;7583016;19;21183;-70
2023/04/17 07:40:30;;;;;;;15.57;8.90;;;6.10;99.90;;;;;;7586211;19;20041;-70
2023/04/17 07:43:02;;;;;;;17.80;8.95;;;6.20;99.90;;;;;;7587303;19;20025;-69
2023/04/17 07:45:35;;;;;;;14.68;8.85;;;6.20;99.90;;;;;;7528008;19;20537;-69
2023/04/17 07:48:10;;;;;;;18.65;10.52;;;6.20;99.90;;;;;;7548728;19;20011;-69
2023/04/17 07:50:42;;;;;;;20.05;10.52;;;6.20;99.90;;;;;;7541544;19;20914;-69
2023/04/17 07:53:16;;;;;;;14.65;8.63;;;6.20;99.90;;;;;;7542725;19;20018;-69
2023/04/17 07:55:49;;;;;;;17.13;9.68;;;6.30;99.90;;;;;;7536223;19;20089;-69
2023/04/17 07:58:22;;;;;;;13.77;8.23;;;6.30;99.90;;;;;;7518896;19;20010;-68
2023/04/17 08:00:55;;;;;;;14.00;8.45;;;6.40;99.90;;;;;;7501220;19;22893;-68
2023/04/17 08:03:27;;;;;;;22.33;9.02;;;6.40;99.90;;;;;;7550543;19;20228;-69
2023/04/17 08:06:00;;;;;;;16.65;9.45;;;6.40;99.90;;;;;;7545049;19;20551;-69
2023/04/17 08:08:32;;;;;;;15.60;8.55;;;6.50;99.90;;;;;;7535012;19;20498;-69
2023/04/17 08:11:04;;;;;;;16.85;8.85;;;6.60;99.90;;;;;;7537013;19;20019;-69
2023/04/17 08:13:36;;;;;;;25.33;11.88;;;6.60;99.90;;;;;;7549412;19;20608;-69
2023/04/17 08:16:09;;;;;;;20.38;9.98;;;6.60;99.90;;;;;;7549794;19;20026;-69
2023/04/17 08:18:41;;;;;;;23.85;10.20;;;6.60;99.90;;;;;;7553288;19;20026;-69
2023/04/17 08:21:14;;;;;;;23.15;10.07;;;6.60;99.90;;;;;;7500764;19;21161;-69
2023/04/17 08:23:47;;;;;;;16.30;9.40;;;6.70;99.90;;;;;;7501585;19;20021;-68
2023/04/17 08:26:19;;;;;;;24.92;9.48;;;6.70;99.90;;;;;;7540803;19;20019;-69
2023/04/17 08:28:52;;;;;;;24.58;9.63;;;6.80;99.90;;;;;;7506247;19;20023;-69
2023/04/17 08:31:25;;;;;;;22.92;10.68;;;6.80;99.90;;;;;;7531645;19;20018;-69
2023/04/17 08:34:00;;;;;;;16.40;9.27;;;6.80;99.90;;;;;;7549497;19;20022;-69
2023/04/17 08:36:46;;;;;;;23.38;10.43;;;6.80;99.90;;;;;;7558141;19;20051;-69
2023/04/17 08:39:19;;;;;;;23.13;10.63;;;7.00;99.90;;;;;;7565749;19;20056;-70
2023/04/17 08:41:59;;;;;;;28.53;11.13;;;7.00;99.90;;;;;;7552631;19;21351;-69
2023/04/17 08:44:31;;;;;;;28.40;11.93;;;6.90;99.90;;;;;;7558733;19;20022;-69
2023/04/17 08:47:07;;;;;;;29.50;11.57;;;6.90;99.90;;;;;;7560472;19;20021;-69
2023/04/17 08:49:42;;;;;;;25.50;10.38;;;7.00;99.90;;;;;;7569630;19;20032;-69
2023/04/17 08:52:15;;;;;;;29.42;12.60;;;7.00;99.90;;;;;;7566756;19;20502;-69
2023/04/17 08:54:47;;;;;;;31.05;13.55;;;6.90;99.90;;;;;;7559026;19;20022;-68
2023/04/17 08:57:22;;;;;;;32.35;13.25;;;6.90;99.90;;;;;;7552025;19;20041;-68
2023/04/17 08:59:54;;;;;;;29.33;12.70;;;7.00;99.90;;;;;;7556599;19;20014;-69
2023/04/17 09:02:27;;;;;;;26.15;12.77;;;7.00;99.90;;;;;;7525283;19;20023;-69
2023/04/17 09:05:00;;;;;;;28.30;13.38;;;7.10;99.90;;;;;;7537838;19;20015;-69
2023/04/17 09:07:33;;;;;;;27.50;13.40;;;7.20;99.90;;;;;;7539683;19;21209;-69
2023/04/17 09:10:05;;;;;;;25.63;12.30;;;7.30;99.90;;;;;;7547989;19;20028;-69
2023/04/17 09:12:40;;;;;;;26.17;12.37;;;7.20;99.90;;;;;;7528560;19;20022;-69
2023/04/17 09:15:16;;;;;;;34.60;14.45;;;7.30;99.90;;;;;;6010254;19;10001012;-71
2023/04/17 09:17:48;;;;;;;35.97;14.88;;;7.40;99.90;;;;;;7018393;19;10000223;-69
2023/04/17 09:20:21;;;;;;;42.35;16.45;;;7.50;99.90;;;;;;7547315;19;20018;-69
2023/04/17 09:23:02;;;;;;;49.75;16.98;;;7.60;99.90;;;;;;7533630;19;21093;-69
2023/04/17 09:25:34;;;;;;;36.25;15.88;;;7.60;99.90;;;;;;7572671;19;20021;-70
2023/04/17 09:28:12;;;;;;;41.30;18.00;;;7.60;99.90;;;;;;7556654;19;20110;-69
2023/04/17 09:30:45;;;;;;;44.20;19.85;;;7.60;99.90;;;;;;7540310;19;20014;-69
2023/04/17 09:33:18;;;;;;;51.33;20.55;;;7.50;99.90;;;;;;7567875;19;20010;-69
2023/04/17 09:35:50;;;;;;;48.40;18.77;;;7.50;99.90;;;;;;7561186;19;20065;-69
2023/04/17 09:38:43;;;;;;;46.38;18.23;;;7.60;99.90;;;;;;7553868;19;20022;-69
2023/04/17 09:41:32;;;;;;;53.78;21.00;;;7.50;99.90;;;;;;7551045;19;20430;-69
2023/04/17 09:44:05;;;;;;;47.78;19.27;;;7.50;99.90;;;;;;7562901;19;20011;-70
2023/04/17 09:46:44;;;;;;;54.65;23.08;;;7.60;99.90;;;;;;7549957;19;20014;-69
2023/04/17 09:49:35;;;;;;;56.38;22.30;;;7.60;99.90;;;;;;7546412;19;20010;-69
2023/04/17 09:52:08;;;;;;;59.17;23.17;;;7.60;99.90;;;;;;7539988;19;20022;-68
2023/04/17 09:54:42;;;;;;;58.80;23.58;;;7.60;99.90;;;;;;7538849;19;20044;-68
2023/04/17 09:57:15;;;;;;;;;;;7.70;99.90;;;;;;7551932;19;20018;-68
2023/04/17 09:59:48;;;;;;;51.90;21.70;;;7.70;99.90;;;;;;7558747;19;19919;-68
2023/04/17 10:02:21;;;;;;;64.53;23.92;;;7.70;99.90;;;;;;7542252;19;20808;-68
2023/04/17 10:04:53;;;;;;;47.33;20.77;;;7.70;99.90;;;;;;7571459;19;20059;-68
2023/04/17 10:07:26;;;;;;;54.42;22.35;;;7.80;99.90;;;;;;7547937;19;20063;-69
2023/04/17 10:09:59;;;;;;;48.40;21.45;;;7.90;99.90;;;;;;7553624;19;20014;-69
2023/04/17 10:12:32;;;;;;;52.33;19.85;;;7.90;99.90;;;;;;7573995;19;20639;-68
2023/04/17 10:15:06;;;;;;;46.58;20.02;;;8.00;99.90;;;;;;7553461;19;20029;-69
2023/04/17 10:17:39;;;;;;;44.30;20.05;;;8.20;99.90;;;;;;7581309;19;20018;-69
2023/04/17 10:20:16;;;;;;;45.63;20.23;;;8.30;99.90;;;;;;7573437;19;20011;-70
2023/04/17 10:22:55;;;;;;;48.00;20.63;;;8.40;99.90;;;;;;7579086;19;20018;-70
2023/04/17 10:25:28;;;;;;;45.63;22.10;;;8.50;99.90;;;;;;7575511;19;20018;-69
2023/04/17 10:28:01;;;;;;;41.42;19.83;;;8.50;99.90;;;;;;7576965;19;20033;-70
2023/04/17 10:30:51;;;;;;;47.20;24.55;;;8.60;99.90;;;;;;7585785;19;20011;-69
2023/04/17 10:33:24;;;;;;;43.92;20.95;;;8.70;99.90;;;;;;7579229;19;20017;-69
2023/04/17 10:35:57;;;;;;;47.85;21.92;;;8.60;99.90;;;;;;7569121;19;20098;-69
2023/04/17 10:38:34;;;;;;;44.65;20.75;;;8.60;99.90;;;;;;7573396;19;20018;-69
2023/04/17 10:41:08;;;;;;;41.42;20.58;;;8.70;99.90;;;;;;7574000;19;20395;-69
2023/04/17 10:43:43;;;;;;;46.15;21.70;;;8.70;99.90;;;;;;7562095;19;21536;-69
2023/04/17 10:46:15;;;;;;;45.10;21.80;;;8.70;99.90;;;;;;7551190;19;20019;-72
2023/04/17 10:48:51;;;;;;;45.10;22.38;;;8.70;99.90;;;;;;7563277;19;20018;-69
2023/04/17 10:51:27;;;;;;;48.10;22.30;;;8.70;99.90;;;;;;7564331;19;20105;-69
2023/04/17 10:54:09;;;;;;;43.10;21.88;;;8.80;99.90;;;;;;7573687;19;20038;-69
2023/04/17 10:56:47;;;;;;;48.78;22.70;;;8.90;99.90;;;;;;7555653;19;20017;-69
2023/04/17 10:59:20;;;;;;;42.75;22.38;;;9.00;99.90;;;;;;7579993;19;20015;-69
2023/04/17 11:01:59;;;;;;;41.80;23.33;;;9.00;99.90;;;;;;7588819;19;20018;-69
2023/04/17 11:04:33;;;;;;;41.58;21.80;;;9.20;99.90;;;;;;7560562;19;20021;-69
2023/04/17 11:07:06;;;;;;;39.47;20.90;;;9.20;99.90;;;;;;7553793;19;20048;-69
2023/04/17 11:09:39;;;;;;;38.78;21.48;;;9.30;99.90;;;;;;7580766;19;20021;-70
2023/04/17 11:12:11;;;;;;;41.22;23.17;;;9.40;99.90;;;;;;7563643;19;20094;-70
2023/04/17 11:14:44;;;;;;;41.35;20.42;;;9.50;99.90;;;;;;7548105;19;20591;-69
2023/04/17 11:17:16;;;;;;;39.63;20.80;;;9.70;99.90;;;;;;7567355;19;20022;-69
2023/04/17 11:19:48;;;;;;;37.25;20.38;;;9.80;99.90;;;;;;7584189;19;20030;-70
2023/04/17 11:22:21;;;;;;;35.78;20.52;;;9.90;99.90;;;;;;7570748;19;20018;-70
2023/04/17 11:24:53;;;;;;;36.78;20.88;;;10.10;99.90;;;;;;7582898;19;20291;-69
2023/04/17 11:27:26;;;;;;;36.53;21.23;;;10.20;99.90;;;;;;7572085;19;20018;-69
2023/04/17 11:29:58;;;;;;;33.60;19.80;;;10.30;99.90;;;;;;7572145;19;20021;-69
2023/04/17 11:32:35;;;;;;;37.60;20.65;;;10.30;99.90;;;;;;7583710;19;20151;-69
2023/04/17 11:35:08;;;;;;;32.40;18.95;;;10.30;99.90;;;;;;7528129;19;20056;-69
2023/04/17 11:38:07;;;;;;;30.40;18.17;;;10.40;99.90;;;;;;7567251;19;20486;-69
2023/04/17 11:40:55;;;;;;;33.67;19.90;;;10.50;99.90;;;;;;7549745;19;20460;-70
2023/04/17 11:43:29;;;;;;;34.13;20.38;;;10.60;99.90;;;;;;7556368;19;20023;-70
2023/04/17 11:46:03;;;;;;;30.08;19.52;;;11.00;99.90;;;;;;7552970;19;20025;-69
2023/04/17 11:48:35;;;;;;;33.17;19.35;;;11.50;99.90;;;;;;7534780;19;20025;-69
2023/04/17 11:51:07;;;;;;;27.88;16.80;;;12.10;99.90;;;;;;7576923;19;20996;-69
2023/04/17 11:53:47;;;;;;;24.70;15.13;;;12.50;99.90;;;;;;7588059;19;20033;-69
2023/04/17 11:56:20;;;;;;;23.02;15.57;;;12.70;99.90;;;;;;6547811;19;10000478;-70
2023/04/17 11:58:54;;;;;;;;;;;12.80;99.90;;;;;;7592224;19;20830;-70
2023/04/17 12:01:27;;;;;;;24.60;16.05;;;12.70;99.90;;;;;;7569999;19;19918;-69
2023/04/17 12:04:00;;;;;;;27.30;16.58;;;12.60;99.90;;;;;;7577746;19;20023;-69
2023/04/17 12:06:37;;;;;;;27.30;17.35;;;12.30;99.90;;;;;;7569124;19;20503;-69
2023/04/17 12:09:19;;;;;;;29.50;18.33;;;12.10;99.90;;;;;;7564659;19;20050;-69
2023/04/17 12:11:52;;;;;;;26.23;17.33;;;11.80;99.90;;;;;;7561927;19;21300;-70
2023/04/17 12:14:24;;;;;;;26.67;16.60;;;11.70;99.90;;;;;;7517021;19;21672;-69
2023/04/17 12:16:58;;;;;;;28.23;17.42;;;11.70;99.90;;;;;;7556506;19;20010;-69
2023/04/17 12:19:32;;;;;;;29.58;17.88;;;11.60;99.90;;;;;;7569543;19;20010;-69
2023/04/17 12:22:05;;;;;;;30.73;18.48;;;11.50;99.90;;;;;;7572781;19;20111;-69
2023/04/17 12:24:37;;;;;;;27.73;17.23;;;11.40;99.90;;;;;;7547733;19;20022;-69
2023/04/17 12:27:09;;;;;;;29.75;16.98;;;11.30;99.90;;;;;;7583244;19;20502;-69
2023/04/17 12:29:41;;;;;;;30.33;16.83;;;11.30;99.90;;;;;;7563786;19;20015;-69
2023/04/17 12:32:15;;;;;;;27.92;17.13;;;11.30;99.90;;;;;;7555315;19;20026;-68
2023/04/17 12:34:48;;;;;;;24.55;15.90;;;11.20;99.90;;;;;;7527001;19;20121;-69
2023/04/17 12:37:20;;;;;;;19.87;13.50;;;11.10;99.90;;;;;;7551088;19;20047;-69
2023/04/17 12:39:52;;;;;;;19.73;13.02;;;11.20;99.90;;;;;;7568091;19;20014;-69
2023/04/17 12:42:25;;;;;;;22.80;15.03;;;11.40;99.90;;;;;;7549346;19;20652;-69
2023/04/17 12:45:02;;;;;;;23.83;14.80;;;11.60;99.90;;;;;;7518340;19;20825;-68
2023/04/17 12:47:34;;;;;;;22.23;14.50;;;11.80;99.90;;;;;;7548669;19;20022;-69
2023/04/17 12:50:07;;;;;;;26.50;15.27;;;12.20;99.90;;;;;;7562207;19;20658;-68
2023/04/17 12:52:40;;;;;;;19.95;13.10;;;12.30;99.90;;;;;;7543461;19;20011;-69
2023/04/17 12:55:13;;;;;;;23.60;13.60;;;12.20;99.40;;;;;;7560618;19;20130;-68
2023/04/17 12:57:45;;;;;;;21.23;12.85;;;12.20;99.90;;;;;;7569170;19;21360;-69
2023/04/17 13:00:18;;;;;;;21.52;13.63;;;12.50;99.90;;;;;;7574436;19;20021;-68
2023/04/17 13:02:50;;;;;;;20.95;12.73;;;13.00;99.90;;;;;;7576223;19;20014;-69
2023/04/17 13:05:23;;;;;;;15.85;11.55;;;13.70;98.30;;;;;;7559070;19;20022;-69
2023/04/17 13:07:56;;;;;;;17.52;11.80;;;14.10;95.60;;;;;;7560937;19;20117;-68
2023/04/17 13:10:28;;;;;;;16.77;11.13;;;14.60;90.90;;;;;;7533384;19;20521;-68
2023/04/17 13:13:01;;;;;;;14.48;10.60;;;14.70;86.40;;;;;;7524752;19;20105;-68
2023/04/17 13:15:34;;;;;;;13.77;10.20;;;14.50;89.80;;;;;;7534158;19;20273;-68
2023/04/17 13:18:07;;;;;;;15.93;10.63;;;14.50;88.00;;;;;;7570468;19;20021;-69
2023/04/17 13:20:39;;;;;;;13.82;10.30;;;14.40;88.50;;;;;;7557008;19;21935;-69